createdAt,value
2023-05-03T00:00:17.225Z,9.50
2023-05-03T00:01:50.338Z,9.50
2023-05-03T00:03:23.722Z,9.50
2023-05-03T00:04:57.200Z,9.50
2023-05-03T00:06:31.485Z,9.50
2023-05-03T00:08:05.329Z,9.50
2023-05-03T00:09:38.407Z,9.50
2023-05-03T00:11:11.679Z,9.50
2023-05-03T00:12:45.590Z,9.50
2023-05-03T00:14:18.648Z,9.50
2023-05-03T00:15:53.082Z,9.50
2023-05-03T00:17:26.179Z,9.50
2023-05-03T00:18:59.442Z,9.50
2023-05-03T00:20:33.232Z,9.50
2023-05-03T00:22:07.047Z,9.50
2023-05-03T00:23:40.134Z,9.50
2023-05-03T00:25:13.240Z,9.50
2023-05-03T00:26:46.303Z,9.50
2023-05-03T00:28:19.383Z,9.50
2023-05-03T00:29:53.123Z,9.50
2023-05-03T00:31:27.738Z,9.50
2023-05-03T00:33:00.925Z,9.50
2023-05-03T00:34:34.254Z,9.40
2023-05-03T00:36:11.119Z,9.40
2023-05-03T00:37:43.337Z,9.40
2023-05-03T00:39:16.410Z,9.40
2023-05-03T00:40:55.297Z,9.40
2023-05-03T00:42:28.384Z,9.30
2023-05-03T00:44:01.514Z,9.30
2023-05-03T00:45:35.704Z,9.30
2023-05-03T00:47:10.586Z,9.30
2023-05-03T00:48:43.963Z,9.30
2023-05-03T00:50:17.283Z,9.40
2023-05-03T00:51:51.570Z,9.40
2023-05-03T00:53:25.139Z,9.40
2023-05-03T00:54:58.624Z,9.40
2023-05-03T00:56:40.967Z,9.30
2023-05-03T00:58:21.916Z,9.40
2023-05-03T00:59:54.996Z,9.30
2023-05-03T01:01:28.773Z,9.40
2023-05-03T01:03:03.356Z,9.40
2023-05-03T01:04:38.082Z,9.30
2023-05-03T01:06:19.181Z,9.30
2023-05-03T01:08:02.456Z,9.30
2023-05-03T01:09:40.625Z,9.30
2023-05-03T01:11:22.685Z,9.30
2023-05-03T01:13:01.953Z,9.30
2023-05-03T01:14:42.316Z,9.30
2023-05-03T01:16:21.092Z,9.30
2023-05-03T01:17:59.235Z,9.30
2023-05-03T01:19:38.025Z,9.20
2023-05-03T01:21:13.342Z,9.10
2023-05-03T01:22:51.678Z,9.10
2023-05-03T01:24:27.276Z,9.10
2023-05-03T01:26:15.205Z,9.10
2023-05-03T01:27:48.427Z,9.10
2023-05-03T01:29:21.518Z,9.00
2023-05-03T01:30:56.092Z,9.00
2023-05-03T01:32:37.561Z,9.00
2023-05-03T01:34:26.063Z,9.00
2023-05-03T01:36:06.037Z,9.10
2023-05-03T01:37:39.319Z,9.00
2023-05-03T01:39:17.427Z,9.10
2023-05-03T01:40:53.170Z,9.10
2023-05-03T01:42:28.362Z,9.10
2023-05-03T01:44:02.230Z,9.10
2023-05-03T01:45:35.429Z,9.20
2023-05-03T01:47:09.295Z,9.10
2023-05-03T01:48:42.314Z,9.00
2023-05-03T01:50:15.460Z,9.00
2023-05-03T01:51:48.524Z,9.00
2023-05-03T01:53:21.613Z,8.90
2023-05-03T01:54:54.792Z,9.00
2023-05-03T01:56:27.966Z,9.00
2023-05-03T01:58:02.510Z,9.00
2023-05-03T01:59:34.584Z,9.00
2023-05-03T02:01:08.092Z,8.90
2023-05-03T02:02:41.340Z,9.00
2023-05-03T02:04:14.561Z,8.90
2023-05-03T02:05:47.663Z,8.90
2023-05-03T02:07:20.771Z,8.90
2023-05-03T02:08:54.355Z,8.80
2023-05-03T02:10:27.524Z,8.70
2023-05-03T02:12:01.944Z,8.60
2023-05-03T02:13:38.574Z,8.50
2023-05-03T02:15:13.883Z,8.50
2023-05-03T02:16:47.374Z,8.50
2023-05-03T02:18:21.803Z,8.50
2023-05-03T02:19:55.183Z,8.50
2023-05-03T02:21:28.294Z,8.40
2023-05-03T02:23:01.412Z,8.40
2023-05-03T02:24:36.199Z,8.40
2023-05-03T02:26:09.400Z,8.40
2023-05-03T02:27:42.514Z,8.30
2023-05-03T02:29:16.057Z,8.30
2023-05-03T02:30:49.231Z,8.30
2023-05-03T02:32:23.989Z,8.40
2023-05-03T02:33:57.214Z,8.30
2023-05-03T02:35:30.327Z,8.30
2023-05-03T02:37:03.597Z,8.20
2023-05-03T02:38:36.822Z,8.20
2023-05-03T02:40:11.022Z,8.20
2023-05-03T02:41:44.112Z,8.20
2023-05-03T02:43:17.451Z,8.10
2023-05-03T02:44:52.018Z,8.10
2023-05-03T02:46:25.223Z,8.10
2023-05-03T02:47:58.936Z,8.10
2023-05-03T02:49:33.154Z,8.10
2023-05-03T02:51:06.942Z,8.00
2023-05-03T02:52:40.055Z,8.00
2023-05-03T02:54:13.179Z,8.00
2023-05-03T02:55:46.685Z,8.00
2023-05-03T02:57:19.869Z,8.00
2023-05-03T02:58:52.979Z,8.00
2023-05-03T03:00:29.376Z,8.00
2023-05-03T03:02:02.734Z,8.10
2023-05-03T03:03:36.807Z,8.00
2023-05-03T03:05:10.532Z,8.00
2023-05-03T03:06:44.163Z,8.00
2023-05-03T03:08:17.661Z,8.00
2023-05-03T03:09:51.554Z,8.00
2023-05-03T03:11:27.627Z,8.00
2023-05-03T03:13:00.789Z,8.00
2023-05-03T03:14:40.011Z,8.00
2023-05-03T03:16:14.521Z,8.00
2023-05-03T03:17:47.709Z,7.90
2023-05-03T03:19:21.198Z,7.90
2023-05-03T03:20:54.306Z,7.90
2023-05-03T03:22:28.490Z,7.90
2023-05-03T03:24:01.563Z,8.00
2023-05-03T03:25:34.733Z,8.00
2023-05-03T03:27:06.849Z,8.00
2023-05-03T03:28:40.278Z,8.00
2023-05-03T03:30:16.839Z,8.00
2023-05-03T03:32:02.322Z,8.00
2023-05-03T03:33:35.944Z,8.00
2023-05-03T03:35:16.629Z,8.00
2023-05-03T03:36:50.171Z,8.00
2023-05-03T03:38:23.484Z,8.00
2023-05-03T03:40:03.460Z,7.90
2023-05-03T03:41:37.140Z,7.90
2023-05-03T03:43:10.291Z,7.90
2023-05-03T03:44:43.960Z,7.90
2023-05-03T03:46:17.239Z,7.90
2023-05-03T03:47:53.700Z,7.90
2023-05-03T03:49:28.471Z,7.90
2023-05-03T03:51:02.491Z,7.90
2023-05-03T03:52:42.339Z,7.90
2023-05-03T03:54:15.961Z,7.80
2023-05-03T03:55:53.618Z,7.80
2023-05-03T03:57:30.128Z,7.80
2023-05-03T03:59:03.348Z,7.80
2023-05-03T04:00:37.142Z,7.80
2023-05-03T04:02:16.971Z,7.80
2023-05-03T04:03:51.626Z,7.80
2023-05-03T04:05:24.923Z,7.90
2023-05-03T04:06:57.999Z,7.90
2023-05-03T04:08:33.265Z,7.90
2023-05-03T04:10:07.377Z,8.00
2023-05-03T04:11:41.468Z,8.00
2023-05-03T04:13:14.629Z,8.00
2023-05-03T04:14:47.864Z,8.00
2023-05-03T04:16:21.059Z,8.00
2023-05-03T04:17:54.394Z,8.10
2023-05-03T04:19:29.176Z,8.10
2023-05-03T04:21:02.228Z,8.10
2023-05-03T04:22:34.406Z,8.10
2023-05-03T04:24:09.142Z,8.20
2023-05-03T04:25:46.710Z,8.10
2023-05-03T04:27:20.938Z,8.30
2023-05-03T04:28:54.413Z,8.20
2023-05-03T04:30:29.502Z,8.20
2023-05-03T04:32:06.749Z,8.20
2023-05-03T04:33:40.605Z,8.30
2023-05-03T04:35:15.274Z,8.20
2023-05-03T04:36:52.625Z,8.10
2023-05-03T04:38:25.920Z,8.10
2023-05-03T04:39:59.181Z,8.20
2023-05-03T04:41:33.154Z,8.20
2023-05-03T04:43:06.478Z,8.20
2023-05-03T04:44:43.529Z,8.20
2023-05-03T04:46:16.726Z,8.20
2023-05-03T04:47:50.818Z,7.90
2023-05-03T04:49:24.018Z,8.30
2023-05-03T04:50:59.254Z,8.30
2023-05-03T04:52:32.816Z,8.30
2023-05-03T04:54:06.638Z,8.40
2023-05-03T04:55:39.909Z,8.50
2023-05-03T04:57:12.048Z,8.40
2023-05-03T04:58:45.565Z,8.40
2023-05-03T05:00:21.423Z,8.50
2023-05-03T05:01:59.639Z,8.50
2023-05-03T05:03:33.050Z,8.50
2023-05-03T05:05:11.832Z,8.50
2023-05-03T05:06:46.463Z,8.50
2023-05-03T05:08:24.631Z,8.60
2023-05-03T05:10:02.095Z,8.60
2023-05-03T05:11:37.205Z,8.70
2023-05-03T05:13:10.360Z,8.80
2023-05-03T05:14:43.461Z,8.80
2023-05-03T05:16:17.591Z,8.60
2023-05-03T05:17:56.416Z,8.70
2023-05-03T05:19:30.234Z,8.70
2023-05-03T05:21:03.521Z,8.80
2023-05-03T05:22:40.621Z,8.90
2023-05-03T05:24:13.703Z,8.80
2023-05-03T05:25:48.048Z,8.70
2023-05-03T05:27:21.289Z,8.80
2023-05-03T05:28:54.835Z,8.90
2023-05-03T05:30:27.948Z,9.00
2023-05-03T05:32:03.433Z,9.00
2023-05-03T05:33:36.809Z,9.00
2023-05-03T05:35:11.093Z,9.00
2023-05-03T05:36:44.237Z,9.00
2023-05-03T05:38:18.789Z,9.10
2023-05-03T05:39:51.914Z,9.10
2023-05-03T05:41:26.862Z,9.10
2023-05-03T05:43:00.261Z,9.30
2023-05-03T05:44:35.139Z,9.50
2023-05-03T05:46:08.526Z,9.40
2023-05-03T05:47:42.116Z,9.50
2023-05-03T05:49:15.498Z,9.50
2023-05-03T05:50:48.873Z,9.40
2023-05-03T05:52:22.172Z,9.30
2023-05-03T05:53:56.618Z,9.10
2023-05-03T05:55:29.911Z,8.90
2023-05-03T05:57:03.910Z,8.80
2023-05-03T05:58:38.470Z,8.90
2023-05-03T06:00:15.471Z,8.90
2023-05-03T06:01:50.052Z,9.00
2023-05-03T06:03:28.982Z,9.30
2023-05-03T06:05:02.379Z,9.50
2023-05-03T06:06:35.545Z,9.10
2023-05-03T06:08:09.270Z,8.80
2023-05-03T06:09:43.924Z,8.90
2023-05-03T06:11:18.277Z,8.80
2023-05-03T06:12:51.746Z,8.90
2023-05-03T06:14:29.003Z,9.00
2023-05-03T06:16:02.560Z,9.40
2023-05-03T06:17:35.989Z,9.70
2023-05-03T06:19:09.300Z,9.70
2023-05-03T06:20:43.033Z,9.40
2023-05-03T06:22:16.466Z,9.50
2023-05-03T06:23:49.653Z,9.50
2023-05-03T06:25:24.265Z,9.50
2023-05-03T06:26:58.617Z,9.30
2023-05-03T06:28:31.807Z,9.40
2023-05-03T06:30:06.554Z,9.50
2023-05-03T06:31:41.811Z,9.80
2023-05-03T06:33:16.288Z,9.90
2023-05-03T06:34:52.932Z,10.00
2023-05-03T06:36:27.627Z,10.50
2023-05-03T06:38:00.702Z,10.60
2023-05-03T06:39:33.860Z,11.10
2023-05-03T06:41:08.376Z,11.60
2023-05-03T06:42:41.610Z,11.60
2023-05-03T06:44:20.990Z,11.00
2023-05-03T06:45:54.109Z,11.60
2023-05-03T06:47:27.354Z,11.50
2023-05-03T06:49:00.701Z,11.70
2023-05-03T06:50:33.790Z,11.90
2023-05-03T06:52:08.163Z,12.00
2023-05-03T06:53:42.730Z,12.80
2023-05-03T06:55:15.880Z,12.60
2023-05-03T06:56:50.627Z,13.30
2023-05-03T06:58:24.156Z,13.70
2023-05-03T06:59:57.435Z,12.10
2023-05-03T07:01:30.816Z,11.40
2023-05-03T07:03:04.596Z,13.50
2023-05-03T07:04:37.932Z,14.70
2023-05-03T07:06:11.108Z,15.40
2023-05-03T07:07:44.500Z,15.10
2023-05-03T07:09:21.973Z,15.00
2023-05-03T07:10:59.351Z,15.00
2023-05-03T07:12:33.822Z,16.40
2023-05-03T07:14:07.291Z,17.60
2023-05-03T07:15:40.368Z,17.50
2023-05-03T07:17:13.660Z,17.30
2023-05-03T07:18:47.322Z,14.20
2023-05-03T07:20:20.563Z,13.70
2023-05-03T07:21:53.833Z,13.60
2023-05-03T07:23:26.968Z,12.70
2023-05-03T07:25:00.103Z,13.30
2023-05-03T07:26:33.276Z,14.40
2023-05-03T07:28:07.908Z,13.20
2023-05-03T07:29:40.940Z,13.90
2023-05-03T07:31:14.385Z,15.20
2023-05-03T07:32:47.503Z,15.30
2023-05-03T07:34:20.628Z,16.40
2023-05-03T07:35:53.679Z,15.20
2023-05-03T07:37:27.805Z,15.40
2023-05-03T07:39:00.861Z,14.90
2023-05-03T07:40:34.036Z,15.60
2023-05-03T07:42:07.570Z,15.80
2023-05-03T07:43:42.454Z,16.50
2023-05-03T07:45:15.612Z,19.20
2023-05-03T07:46:48.992Z,19.20
2023-05-03T07:48:22.773Z,17.00
2023-05-03T07:49:56.011Z,16.80
2023-05-03T07:51:29.782Z,18.00
2023-05-03T07:53:02.920Z,18.90
2023-05-03T07:54:36.170Z,19.10
2023-05-03T07:56:09.429Z,20.10
2023-05-03T07:57:42.547Z,17.60
2023-05-03T07:59:16.960Z,19.20
2023-05-03T08:00:50.029Z,19.40
2023-05-03T08:02:23.249Z,19.70
2023-05-03T08:03:56.579Z,16.70
2023-05-03T08:05:29.775Z,16.80
2023-05-03T08:07:04.159Z,17.40
2023-05-03T08:08:38.262Z,17.50
2023-05-03T08:10:12.365Z,17.20
2023-05-03T08:11:45.525Z,15.40
2023-05-03T08:13:18.603Z,16.40
2023-05-03T08:14:53.524Z,16.40
2023-05-03T08:16:26.973Z,16.90
2023-05-03T08:18:01.268Z,16.40
2023-05-03T08:19:34.352Z,15.90
2023-05-03T08:21:08.041Z,16.60
2023-05-03T08:22:41.442Z,16.30
2023-05-03T08:24:16.140Z,16.80
2023-05-03T08:25:49.382Z,16.10
2023-05-03T08:27:23.407Z,14.70
2023-05-03T08:28:56.932Z,13.90
2023-05-03T08:30:31.551Z,14.50
2023-05-03T08:32:04.901Z,15.20
2023-05-03T08:33:38.347Z,14.90
2023-05-03T08:35:13.973Z,13.40
2023-05-03T08:36:47.114Z,12.90
2023-05-03T08:38:20.177Z,13.20
2023-05-03T08:39:53.279Z,13.60
2023-05-03T08:41:30.856Z,12.20
2023-05-03T08:43:09.848Z,11.80
2023-05-03T08:44:49.544Z,12.50
2023-05-03T08:46:25.673Z,12.80
2023-05-03T08:47:58.886Z,12.70
2023-05-03T08:49:34.184Z,13.00
2023-05-03T08:51:11.131Z,14.10
2023-05-03T08:52:45.736Z,16.10
2023-05-03T08:54:20.732Z,15.00
2023-05-03T08:55:53.828Z,12.80
2023-05-03T08:57:27.773Z,12.90
2023-05-03T08:59:08.795Z,14.40
2023-05-03T09:00:45.055Z,14.80
2023-05-03T09:02:20.130Z,15.10
2023-05-03T09:03:53.515Z,15.80
2023-05-03T09:05:38.943Z,17.30
2023-05-03T09:07:13.480Z,18.10
2023-05-03T09:08:46.551Z,18.90
2023-05-03T09:10:24.831Z,20.00
2023-05-03T09:11:58.216Z,20.40
2023-05-03T09:13:32.285Z,20.40
2023-05-03T09:15:06.492Z,18.50
2023-05-03T09:16:40.855Z,15.70
2023-05-03T09:18:18.772Z,14.70
2023-05-03T09:19:53.390Z,15.10
2023-05-03T09:21:26.493Z,14.60
2023-05-03T09:22:59.615Z,14.90
2023-05-03T09:24:32.748Z,14.90
2023-05-03T09:26:07.358Z,14.90
2023-05-03T09:27:40.540Z,14.90
2023-05-03T09:29:28.961Z,14.80
2023-05-03T09:31:10.753Z,16.00
2023-05-03T09:32:49.363Z,17.30
2023-05-03T09:34:24.062Z,18.40
2023-05-03T09:35:58.306Z,18.10
2023-05-03T09:37:38.791Z,17.00
2023-05-03T09:39:17.828Z,17.90
2023-05-03T09:40:51.210Z,18.30
2023-05-03T09:42:24.503Z,18.40
2023-05-03T09:44:02.780Z,17.30
2023-05-03T09:45:36.268Z,15.60
2023-05-03T09:47:09.903Z,14.90
2023-05-03T09:48:43.414Z,15.00
2023-05-03T09:50:17.849Z,13.90
2023-05-03T09:51:51.146Z,14.10
2023-05-03T09:53:26.548Z,14.40
2023-05-03T09:54:59.812Z,14.70
2023-05-03T09:56:33.219Z,14.80
2023-05-03T09:58:07.655Z,15.20
2023-05-03T09:59:40.762Z,16.80
2023-05-03T10:01:16.246Z,18.10
2023-05-03T10:02:51.364Z,19.10
2023-05-03T10:04:27.814Z,19.10
2023-05-03T10:06:06.362Z,16.50
2023-05-03T10:07:43.229Z,17.30
2023-05-03T10:09:23.329Z,18.50
2023-05-03T10:10:56.834Z,18.60
2023-05-03T10:12:30.489Z,17.70
2023-05-03T10:14:05.691Z,16.80
2023-05-03T10:15:42.039Z,16.20
2023-05-03T10:17:19.592Z,15.10
2023-05-03T10:18:58.227Z,14.20
2023-05-03T10:20:39.277Z,14.00
2023-05-03T10:22:13.752Z,13.80
2023-05-03T10:24:12.637Z,14.30
2023-05-03T10:26:17.585Z,14.90
2023-05-03T10:27:54.222Z,15.40
2023-05-03T10:29:53.820Z,16.10
2023-05-03T10:31:46.979Z,16.90
2023-05-03T10:33:34.966Z,17.60
2023-05-03T10:35:10.377Z,18.10
2023-05-03T10:36:49.666Z,17.90
2023-05-03T10:38:26.033Z,18.50
2023-05-03T10:40:07.616Z,20.00
2023-05-03T10:41:40.671Z,20.90
2023-05-03T10:43:44.778Z,20.50
2023-05-03T10:45:23.321Z,20.00
2023-05-03T10:46:56.518Z,17.00
2023-05-03T10:48:30.215Z,17.10
2023-05-03T10:50:30.938Z,17.40
2023-05-03T10:52:04.202Z,18.00
2023-05-03T10:53:40.821Z,19.10
2023-05-03T10:55:15.845Z,18.70
2023-05-03T10:56:50.757Z,17.30
2023-05-03T10:58:23.810Z,17.20
2023-05-03T10:59:57.427Z,17.80
2023-05-03T11:01:32.133Z,17.10
2023-05-03T11:03:28.431Z,18.10
2023-05-03T11:05:08.148Z,18.40
2023-05-03T11:06:42.190Z,18.80
2023-05-03T11:08:17.958Z,20.40
2023-05-03T11:09:52.785Z,21.00
2023-05-03T11:11:24.899Z,20.30
2023-05-03T11:12:57.949Z,19.50
2023-05-03T11:14:31.086Z,20.00
2023-05-03T11:16:05.764Z,18.70
2023-05-03T11:17:39.845Z,19.10
2023-05-03T11:19:12.964Z,20.50
2023-05-03T11:20:46.230Z,20.30
2023-05-03T11:22:20.361Z,18.50
2023-05-03T11:23:53.635Z,19.10
2023-05-03T11:25:28.142Z,18.50
2023-05-03T11:27:08.335Z,16.70
2023-05-03T11:28:42.557Z,16.20
2023-05-03T11:30:16.228Z,16.30
2023-05-03T11:31:49.448Z,17.50
2023-05-03T11:33:22.635Z,17.80
2023-05-03T11:34:56.239Z,16.80
2023-05-03T11:36:31.074Z,17.30
2023-05-03T11:38:04.305Z,17.20
2023-05-03T11:39:38.125Z,17.20
2023-05-03T11:41:16.208Z,18.10
2023-05-03T11:42:53.818Z,19.10
2023-05-03T11:44:26.882Z,19.50
2023-05-03T11:46:01.148Z,19.00
2023-05-03T11:47:34.359Z,20.20
2023-05-03T11:49:08.098Z,20.90
2023-05-03T11:50:48.473Z,21.70
2023-05-03T11:52:23.094Z,21.60
2023-05-03T11:53:57.143Z,21.00
2023-05-03T11:55:32.097Z,18.40
2023-05-03T11:57:14.680Z,18.20
2023-05-03T11:58:52.480Z,16.60
2023-05-03T12:00:26.487Z,17.80
2023-05-03T12:01:59.820Z,19.00
2023-05-03T12:03:34.165Z,19.50
2023-05-03T12:05:09.601Z,19.80
2023-05-03T12:08:22.650Z,19.40
2023-05-03T12:10:10.004Z,17.70
2023-05-03T12:11:51.589Z,16.20
2023-05-03T12:13:33.867Z,17.30
2023-05-03T12:15:11.274Z,18.90
2023-05-03T12:16:50.933Z,20.00
2023-05-03T12:18:24.624Z,20.50
2023-05-03T12:21:59.150Z,20.00
2023-05-03T12:23:44.239Z,19.30
2023-05-03T12:25:20.265Z,18.40
2023-05-03T12:26:57.161Z,17.40
2023-05-03T12:28:31.911Z,17.00
2023-05-03T12:30:08.416Z,18.20
2023-05-03T12:31:44.195Z,19.60
2023-05-03T12:33:21.905Z,20.10
2023-05-03T12:34:57.504Z,19.50
2023-05-03T12:36:32.360Z,18.80
2023-05-03T12:38:09.161Z,18.40
2023-05-03T12:39:45.961Z,17.90
2023-05-03T12:41:50.877Z,18.20
2023-05-03T12:43:12.597Z,17.80
2023-05-03T12:44:48.292Z,18.80
2023-05-03T12:46:34.056Z,19.20
2023-05-03T12:48:08.596Z,19.00
2023-05-03T12:49:45.724Z,18.90
2023-05-03T12:51:20.504Z,19.50
2023-05-03T12:53:01.833Z,18.50
2023-05-03T12:54:35.644Z,19.30
2023-05-03T12:56:13.251Z,18.60
2023-05-03T12:57:58.186Z,19.30
2023-05-03T12:59:42.884Z,19.90
2023-05-03T13:06:13.482Z,19.10
2023-05-03T13:07:55.581Z,19.40
2023-05-03T13:09:46.182Z,19.80
2023-05-03T13:11:25.108Z,20.90
2023-05-03T13:12:58.279Z,21.30
2023-05-03T13:14:31.609Z,21.10
2023-05-03T13:16:05.060Z,21.30
2023-05-03T13:17:39.549Z,21.20
2023-05-03T13:19:12.745Z,21.40
2023-05-03T13:20:45.873Z,20.30
2023-05-03T13:22:19.263Z,20.30
2023-05-03T13:23:52.360Z,19.80
2023-05-03T13:25:25.675Z,19.70
2023-05-03T13:26:58.799Z,19.80
2023-05-03T13:28:31.860Z,19.60
2023-05-03T13:30:06.026Z,19.30
2023-05-03T13:31:39.235Z,19.40
2023-05-03T13:33:13.925Z,18.40
2023-05-03T13:34:47.004Z,18.90
2023-05-03T13:36:20.100Z,18.70
2023-05-03T13:37:54.004Z,18.60
2023-05-03T13:39:27.394Z,17.90
2023-05-03T13:41:00.475Z,18.10
2023-05-03T13:42:34.924Z,17.90
2023-05-03T13:44:08.430Z,18.80
2023-05-03T13:45:41.625Z,18.60
2023-05-03T13:47:14.802Z,19.10
2023-05-03T13:48:49.280Z,18.70
2023-05-03T13:50:22.451Z,18.50
2023-05-03T13:51:55.573Z,18.70
2023-05-03T13:53:28.672Z,18.50
2023-05-03T13:55:04.322Z,18.50
2023-05-03T13:56:38.047Z,18.70
2023-05-03T13:58:11.473Z,18.80
2023-05-03T13:59:44.538Z,18.00
2023-05-03T14:01:17.842Z,18.20
2023-05-03T14:02:51.891Z,17.60
2023-05-03T14:04:26.501Z,17.50
2023-05-03T14:05:59.635Z,17.60
2023-05-03T14:07:32.975Z,17.60
2023-05-03T14:09:06.436Z,18.30
2023-05-03T14:10:40.304Z,18.60
2023-05-03T14:12:13.378Z,18.00
2023-05-03T14:13:56.295Z,17.80
2023-05-03T14:15:30.978Z,17.80
2023-05-03T14:17:04.563Z,17.80
2023-05-03T14:18:37.847Z,18.20
2023-05-03T14:20:13.359Z,18.30
2023-05-03T14:21:49.450Z,18.60
2023-05-03T14:23:22.508Z,18.60
2023-05-03T14:24:55.980Z,18.00
2023-05-03T14:26:29.720Z,17.50
2023-05-03T14:28:02.916Z,17.90
2023-05-03T14:29:35.986Z,18.00
2023-05-03T14:31:09.468Z,18.20
2023-05-03T14:32:42.913Z,17.20
2023-05-03T14:34:16.618Z,17.00
2023-05-03T14:35:51.167Z,16.80
2023-05-03T14:37:24.309Z,17.50
2023-05-03T14:38:57.378Z,17.70
2023-05-03T14:40:30.467Z,18.00
2023-05-03T14:42:04.114Z,18.20
2023-05-03T14:43:39.047Z,17.90
2023-05-03T14:45:14.806Z,17.70
2023-05-03T14:46:48.014Z,17.00
2023-05-03T14:48:21.123Z,17.00
2023-05-03T14:49:54.160Z,16.60
2023-05-03T14:51:28.964Z,16.50
2023-05-03T14:53:02.058Z,16.70
2023-05-03T14:54:35.157Z,16.60
2023-05-03T14:56:08.539Z,17.20
2023-05-03T14:57:41.802Z,17.70
2023-05-03T14:59:14.957Z,18.00
2023-05-03T15:00:48.046Z,17.20
2023-05-03T15:02:21.279Z,16.60
2023-05-03T15:03:54.498Z,16.60
2023-05-03T15:05:27.638Z,17.00
2023-05-03T15:07:06.475Z,17.20
2023-05-03T15:08:39.903Z,17.20
2023-05-03T15:10:13.001Z,17.10
2023-05-03T15:11:46.587Z,17.00
2023-05-03T15:13:19.769Z,16.90
2023-05-03T15:14:53.503Z,16.30
2023-05-03T15:16:26.787Z,15.90
2023-05-03T15:18:00.013Z,16.00
2023-05-03T15:19:33.183Z,16.30
2023-05-03T15:21:07.478Z,16.60
2023-05-03T15:22:42.109Z,16.70
2023-05-03T15:24:15.243Z,16.90
2023-05-03T15:25:48.316Z,16.90
2023-05-03T15:27:21.398Z,16.80
2023-05-03T15:28:54.464Z,16.40
2023-05-03T15:30:28.228Z,16.20
2023-05-03T15:32:01.688Z,16.00
2023-05-03T15:33:41.826Z,15.80
2023-05-03T15:35:15.160Z,15.70
2023-05-03T15:36:48.247Z,15.50
2023-05-03T15:38:22.747Z,15.70
2023-05-03T15:39:56.019Z,15.90
2023-05-03T15:41:29.080Z,16.00
2023-05-03T15:43:02.182Z,16.20
2023-05-03T15:44:35.330Z,16.30
2023-05-03T15:46:08.493Z,16.00
2023-05-03T15:47:42.430Z,15.80
2023-05-03T15:49:15.977Z,15.80
2023-05-03T15:50:49.026Z,16.00
2023-05-03T15:52:23.220Z,16.10
2023-05-03T15:53:57.773Z,16.20
2023-05-03T15:55:30.961Z,16.20
2023-05-03T15:57:05.414Z,15.50
2023-05-03T15:58:38.581Z,15.30
2023-05-03T16:00:13.261Z,15.50
2023-05-03T16:01:46.564Z,15.70
2023-05-03T16:03:19.725Z,15.90
2023-05-03T16:04:52.805Z,15.90
2023-05-03T16:06:25.940Z,16.00
2023-05-03T16:07:59.035Z,16.00
2023-05-03T16:09:33.516Z,16.10
2023-05-03T16:11:06.866Z,16.00
2023-05-03T16:12:40.789Z,15.90
2023-05-03T16:14:16.163Z,16.00
2023-05-03T16:15:52.473Z,15.90
2023-05-03T16:17:25.961Z,15.90
2023-05-03T16:18:59.049Z,16.00
2023-05-03T16:20:32.329Z,15.90
2023-05-03T16:22:05.454Z,15.90
2023-05-03T16:23:38.990Z,16.00
2023-05-03T16:25:13.748Z,16.00
2023-05-03T16:26:46.813Z,15.80
2023-05-03T16:28:19.060Z,15.60
2023-05-03T16:29:52.368Z,15.70
2023-05-03T16:31:25.502Z,15.80
2023-05-03T16:32:58.663Z,15.80
2023-05-03T16:34:31.832Z,15.80
2023-05-03T16:36:05.244Z,15.80
2023-05-03T16:37:38.589Z,15.70
2023-05-03T16:39:12.688Z,15.80
2023-05-03T16:40:47.193Z,15.70
2023-05-03T16:42:20.270Z,15.80
2023-05-03T16:43:53.429Z,15.90
2023-05-03T16:45:26.884Z,15.90
2023-05-03T16:47:00.051Z,15.80
2023-05-03T16:48:34.607Z,15.90
2023-05-03T16:50:08.784Z,15.80
2023-05-03T16:51:41.933Z,15.80
2023-05-03T16:53:14.982Z,15.80
2023-05-03T16:54:48.051Z,15.70
2023-05-03T16:56:23.074Z,15.60
2023-05-03T16:57:56.292Z,15.50
2023-05-03T16:59:30.026Z,15.30
2023-05-03T17:01:03.231Z,15.10
2023-05-03T17:02:36.657Z,15.00
2023-05-03T17:04:09.739Z,14.80
2023-05-03T17:05:42.883Z,14.70
2023-05-03T17:07:16.082Z,14.70
2023-05-03T17:08:49.351Z,14.60
2023-05-03T17:10:22.647Z,14.50
2023-05-03T17:11:57.130Z,14.60
2023-05-03T17:13:30.219Z,14.60
2023-05-03T17:15:03.322Z,14.60
2023-05-03T17:16:40.959Z,14.70
2023-05-03T17:18:14.127Z,14.80
2023-05-03T17:19:47.264Z,14.80
2023-05-03T17:21:20.773Z,14.80
2023-05-03T17:22:54.242Z,14.70
2023-05-03T17:24:28.519Z,14.70
2023-05-03T17:26:01.660Z,14.60
2023-05-03T17:27:36.527Z,14.60
2023-05-03T17:29:09.648Z,14.50
2023-05-03T17:30:42.841Z,14.50
2023-05-03T17:32:15.972Z,14.50
2023-05-03T17:33:49.044Z,14.50
2023-05-03T17:35:22.646Z,14.40
2023-05-03T17:36:56.255Z,14.30
2023-05-03T17:38:29.619Z,14.30
2023-05-03T17:40:02.957Z,14.30
2023-05-03T17:41:38.216Z,14.20
2023-05-03T17:43:12.968Z,14.20
2023-05-03T17:44:46.621Z,14.10
2023-05-03T17:46:20.302Z,14.00
2023-05-03T17:47:53.487Z,14.00
2023-05-03T17:49:26.802Z,14.00
2023-05-03T17:50:59.904Z,14.00
2023-05-03T17:52:33.071Z,13.80
2023-05-03T17:54:06.832Z,13.80
2023-05-03T17:55:40.411Z,13.70
2023-05-03T17:57:12.850Z,13.70
2023-05-03T17:58:47.616Z,13.60
2023-05-03T18:00:22.452Z,13.60
2023-05-03T18:01:55.843Z,13.60
2023-05-03T18:03:29.078Z,13.60
2023-05-03T18:05:02.237Z,13.50
2023-05-03T18:06:35.373Z,13.50
2023-05-03T18:08:08.491Z,13.40
2023-05-03T18:09:41.562Z,13.30
2023-05-03T18:11:14.695Z,13.10
2023-05-03T18:12:48.208Z,12.90
2023-05-03T18:14:22.709Z,12.80
2023-05-03T18:15:55.899Z,12.90
2023-05-03T18:17:29.939Z,13.00
2023-05-03T18:19:03.776Z,13.00
2023-05-03T18:20:37.133Z,12.80
2023-05-03T18:22:09.347Z,12.70
2023-05-03T18:23:43.143Z,12.50
2023-05-03T18:25:17.763Z,12.30
2023-05-03T18:26:50.815Z,12.00
2023-05-03T18:28:24.110Z,11.90
2023-05-03T18:29:58.584Z,11.70
2023-05-03T18:31:31.846Z,11.60
2023-05-03T18:33:05.227Z,11.50
2023-05-03T18:34:38.363Z,11.30
2023-05-03T18:36:11.983Z,11.20
2023-05-03T18:37:45.198Z,11.00
2023-05-03T18:39:18.535Z,10.80
2023-05-03T18:40:51.645Z,10.70
2023-05-03T18:42:24.711Z,10.60
2023-05-03T18:43:58.532Z,10.40
2023-05-03T18:45:33.066Z,10.20
2023-05-03T18:47:07.446Z,10.00
2023-05-03T18:48:40.979Z,9.80
2023-05-03T18:50:14.102Z,9.70
2023-05-03T18:51:47.343Z,9.50
2023-05-03T18:53:20.445Z,9.40
2023-05-03T18:54:54.122Z,9.30
2023-05-03T18:56:30.059Z,9.10
2023-05-03T18:58:03.543Z,8.90
2023-05-03T18:59:45.619Z,8.90
2023-05-03T19:01:27.514Z,8.80
2023-05-03T19:03:01.141Z,8.60
2023-05-03T19:04:34.422Z,8.50
2023-05-03T19:06:08.124Z,8.50
2023-05-03T19:07:42.961Z,8.40
2023-05-03T19:09:16.375Z,8.40
2023-05-03T19:10:49.466Z,8.30
2023-05-03T19:12:22.736Z,8.30
2023-05-03T19:13:55.836Z,8.20
2023-05-03T19:15:28.928Z,8.20
2023-05-03T19:17:03.557Z,8.10
2023-05-03T19:18:37.143Z,8.00
2023-05-03T19:20:12.009Z,8.00
2023-05-03T19:21:45.095Z,7.90
2023-05-03T19:23:18.168Z,7.80
2023-05-03T19:24:51.239Z,7.80
2023-05-03T19:26:24.437Z,7.70
2023-05-03T19:27:57.568Z,7.70
2023-05-03T19:29:31.119Z,7.60
2023-05-03T19:31:04.640Z,7.50
2023-05-03T19:32:39.785Z,7.40
2023-05-03T19:34:12.870Z,7.40
2023-05-03T19:35:46.139Z,7.40
2023-05-03T19:37:19.694Z,7.30
2023-05-03T19:38:52.737Z,7.20
2023-05-03T19:40:30.359Z,7.20
2023-05-03T19:42:03.955Z,7.20
2023-05-03T19:43:37.122Z,7.10
2023-05-03T19:45:10.956Z,7.10
2023-05-03T19:46:44.156Z,7.00
2023-05-03T19:48:18.666Z,7.00
2023-05-03T19:49:52.119Z,7.00
2023-05-03T19:51:25.182Z,6.90
2023-05-03T19:52:58.253Z,6.80
2023-05-03T19:54:32.853Z,6.70
2023-05-03T19:56:07.069Z,6.70
2023-05-03T19:57:40.202Z,6.60
2023-05-03T19:59:13.409Z,6.50
2023-05-03T20:00:46.464Z,6.50
2023-05-03T20:02:20.303Z,6.50
2023-05-03T20:03:56.528Z,6.50
2023-05-03T20:05:29.882Z,6.40
2023-05-03T20:07:02.970Z,6.30
2023-05-03T20:08:36.322Z,6.30
2023-05-03T20:10:10.372Z,6.30
2023-05-03T20:11:43.494Z,6.30
2023-05-03T20:13:17.109Z,6.20
2023-05-03T20:14:50.260Z,6.20
2023-05-03T20:16:27.050Z,6.20
2023-05-03T20:18:00.372Z,6.10
2023-05-03T20:19:34.829Z,6.10
2023-05-03T20:21:07.882Z,6.00
2023-05-03T20:22:41.021Z,6.00
2023-05-03T20:24:14.850Z,5.90
2023-05-03T20:25:47.940Z,5.90
2023-05-03T20:27:21.192Z,5.80
2023-05-03T20:28:54.261Z,5.80
2023-05-03T20:30:29.063Z,5.80
2023-05-03T20:32:02.693Z,5.80
2023-05-03T20:33:35.807Z,5.70
2023-05-03T20:35:11.965Z,5.70
2023-05-03T20:36:45.070Z,5.70
2023-05-03T20:38:18.245Z,5.70
2023-05-03T20:39:50.353Z,5.60
2023-05-03T20:41:23.887Z,5.50
2023-05-03T20:42:57.007Z,5.50
2023-05-03T20:44:30.079Z,5.40
2023-05-03T20:46:03.907Z,5.40